Time;durP1;ratioP1;P1;durP2;ratioP2;P2;SDS_P1;SDS_P2;PMS_P1;PMS_P2;Temp;Humidity;BMP_temperature;BMP_pressure;BME280_temperature;BME280_humidity;BME280_pressure;Samples;Min_cycle;Max_cycle;Signal;HPM_P1;HPM_P2
2023/12/30 00:00:30;;;;;;;;;;;16.00;69.00;;;;;;7326984;19;9221;-57
2023/12/30 00:03:00;;;;;;;;;;;16.00;69.00;;;;;;7327421;19;9275;-58
2023/12/30 00:05:29;;;;;;;;;;;16.00;68.90;;;;;;7328119;19;9273;-57
2023/12/30 00:07:58;;;;;;;;;;;16.10;68.90;;;;;;7327948;19;9429;-57
2023/12/30 00:10:28;;;;;;;;;;;16.10;68.80;;;;;;7326919;19;9340;-57
2023/12/30 00:12:57;;;;;;;;;;;16.20;68.70;;;;;;7327856;19;9466;-58
2023/12/30 00:15:28;;;;;;;;;;;16.30;68.60;;;;;;7326887;19;9454;-58
2023/12/30 00:17:57;;;;;;;;;;;16.30;68.60;;;;;;7327449;19;9023;-57
2023/12/30 00:20:27;;;;;;;;;;;16.40;68.50;;;;;;7326998;19;9308;-58
2023/12/30 00:22:57;;;;;;;;;;;16.40;68.40;;;;;;7326979;19;9361;-57
2023/12/30 00:25:26;;;;;;;;;;;16.50;68.30;;;;;;7326701;19;9452;-57
2023/12/30 00:27:55;;;;;;;;;;;16.60;68.30;;;;;;7327925;19;9532;-58
2023/12/30 00:30:24;;;;;;;;;;;16.60;68.20;;;;;;7326823;19;9465;-58
2023/12/30 00:32:56;;;;;;;;;;;16.70;68.20;;;;;;7327277;19;9178;-58
2023/12/30 00:35:25;;;;;;;;;;;16.70;68.10;;;;;;7327036;19;9582;-57
2023/12/30 00:37:55;;;;;;;;;;;16.80;68.10;;;;;;7326491;19;9461;-57
2023/12/30 00:40:24;;;;;;;;;;;16.80;68.00;;;;;;7327307;19;9585;-57
2023/12/30 00:42:53;;;;;;;;;;;16.70;67.90;;;;;;7325430;19;10672;-58
2023/12/30 00:45:22;;;;;;;;;;;16.80;67.90;;;;;;7327112;19;9614;-58
2023/12/30 00:47:52;;;;;;;;;;;16.80;67.90;;;;;;7326053;19;10155;-57
2023/12/30 00:50:23;;;;;;;;;;;16.70;67.80;;;;;;7326588;19;9342;-57
2023/12/30 00:52:52;;;;;;;;;;;16.80;67.90;;;;;;7326164;19;9233;-57
2023/12/30 00:55:21;;;;;;;;;;;16.70;67.80;;;;;;7326600;19;9541;-57
2023/12/30 00:57:50;;;;;;;;;;;16.70;67.80;;;;;;7325918;19;9528;-57
2023/12/30 01:00:20;;;;;;;;;;;16.70;67.70;;;;;;7325577;19;9397;-60
2023/12/30 01:02:49;;;;;;;;;;;16.70;67.80;;;;;;7325743;19;9272;-58
2023/12/30 01:05:18;;;;;;;;;;;16.60;67.70;;;;;;7326670;19;9559;-57
2023/12/30 01:07:50;;;;;;;;;;;16.60;67.70;;;;;;7326734;19;9234;-57
2023/12/30 01:10:19;;;;;;;;;;;16.60;67.80;;;;;;7325606;19;9428;-57
2023/12/30 01:12:48;;;;;;;;;;;16.50;67.90;;;;;;7325738;19;9620;-57
2023/12/30 01:15:18;;;;;;;;;;;16.50;67.90;;;;;;7325177;19;9442;-57
2023/12/30 01:17:47;;;;;;;;;;;16.50;68.00;;;;;;7326266;19;9515;-58
2023/12/30 01:20:16;;;;;;;;;;;16.40;68.10;;;;;;7325396;19;9218;-58
2023/12/30 01:22:45;;;;;;;;;;;16.40;68.20;;;;;;7326146;19;10317;-57
2023/12/30 01:25:17;;;;;;;;;;;16.40;68.20;;;;;;7325457;19;9457;-57
2023/12/30 01:27:46;;;;;;;;;;;16.30;68.20;;;;;;7324751;19;9280;-57
2023/12/30 01:30:15;;;;;;;;;;;16.30;68.20;;;;;;7324760;19;9467;-58
2023/12/30 01:32:44;;;;;;;;;;;16.30;68.30;;;;;;7325777;19;9809;-57
2023/12/30 01:35:14;;;;;;;;;;;16.20;68.40;;;;;;7324316;19;9470;-58
2023/12/30 01:37:43;;;;;;;;;;;16.20;68.40;;;;;;7325725;19;10533;-58
2023/12/30 01:40:14;;;;;;;;;;;16.10;68.40;;;;;;7325082;19;9314;-58
2023/12/30 01:42:46;;;;;;;;;;;16.10;68.50;;;;;;7324951;19;9470;-58
2023/12/30 01:45:15;;;;;;;;;;;16.10;68.60;;;;;;7325140;19;9246;-58
2023/12/30 01:47:44;;;;;;;;;;;16.00;68.60;;;;;;7324851;19;9392;-57
2023/12/30 01:50:14;;;;;;;;;;;16.00;68.70;;;;;;7325626;19;9233;-58
2023/12/30 01:52:43;;;;;;;;;;;16.00;68.70;;;;;;7324793;19;9462;-58
2023/12/30 01:55:12;;;;;;;;;;;15.90;68.70;;;;;;7325335;19;9457;-57
2023/12/30 01:57:42;;;;;;;;;;;15.90;68.80;;;;;;7323942;19;9257;-57
2023/12/30 02:00:20;;;;;;;;;;;15.90;68.80;;;;;;7324920;19;9432;-57
2023/12/30 02:02:50;;;;;;;;;;;16.00;68.80;;;;;;7324693;19;9411;-57
2023/12/30 02:05:20;;;;;;;;;;;16.00;68.80;;;;;;7324714;19;9452;-58
2023/12/30 02:07:50;;;;;;;;;;;15.90;68.70;;;;;;7323810;19;9501;-57
2023/12/30 02:10:20;;;;;;;;;;;16.00;68.70;;;;;;7324191;19;9208;-57
2023/12/30 02:12:46;;;;;;;;;;;16.00;68.70;;;;;;7323845;19;9330;-57
2023/12/30 02:15:21;;;;;;;;;;;16.10;68.70;;;;;;7324158;19;9261;-57
2023/12/30 02:17:51;;;;;;;;;;;16.10;68.50;;;;;;7320735;19;9469;-57
2023/12/30 02:20:41;;;;;;;;;;;16.20;68.50;;;;;;7321535;19;9505;-57
2023/12/30 02:23:13;;;;;;;;;;;16.30;68.50;;;;;;7324046;19;10588;-57
2023/12/30 02:25:43;;;;;;;;;;;16.30;68.30;;;;;;7323379;19;9478;-57
2023/12/30 02:28:13;;;;;;;;;;;16.40;68.30;;;;;;7324251;19;9469;-57
2023/12/30 02:30:42;;;;;;;;;;;16.50;68.30;;;;;;7323825;19;9558;-57
2023/12/30 02:33:11;;;;;;;;;;;16.50;68.20;;;;;;7323706;19;9591;-57
2023/12/30 02:35:40;;;;;;;;;;;16.60;68.10;;;;;;7324426;19;9380;-57
2023/12/30 02:38:11;;;;;;;;;;;16.60;68.00;;;;;;7324374;19;9178;-57
2023/12/30 02:40:41;;;;;;;;;;;16.60;67.90;;;;;;7323288;19;9608;-58
2023/12/30 02:43:10;;;;;;;;;;;16.70;67.90;;;;;;7323275;19;9340;-57
2023/12/30 02:45:39;;;;;;;;;;;16.70;67.70;;;;;;7323059;19;9269;-57
2023/12/30 02:48:09;;;;;;;;;;;16.70;67.70;;;;;;7324101;19;9543;-57
2023/12/30 02:50:38;;;;;;;;;;;16.70;67.60;;;;;;7324096;19;9445;-57
2023/12/30 02:53:07;;;;;;;;;;;16.70;67.50;;;;;;7322954;19;9563;-58
2023/12/30 02:55:38;;;;;;;;;;;16.70;67.50;;;;;;7322990;19;9398;-58
2023/12/30 02:58:07;;;;;;;;;;;16.70;67.40;;;;;;7322904;19;9473;-60
2023/12/30 03:00:36;;;;;;;;;;;16.70;67.60;;;;;;7322483;19;9472;-58
2023/12/30 03:03:06;;;;;;;;;;;16.60;67.40;;;;;;7323302;19;9525;-57
2023/12/30 03:05:35;;;;;;;;;;;16.60;68.00;;;;;;7322795;19;9693;-57
2023/12/30 03:08:04;;;;;;;;;;;16.60;67.40;;;;;;7322399;19;9214;-57
2023/12/30 03:10:33;;;;;;;;;;;16.60;67.40;;;;;;7322787;19;9236;-58
2023/12/30 03:13:04;;;;;;;;;;;16.50;67.40;;;;;;7322608;19;9779;-57
2023/12/30 03:15:33;;;;;;;;;;;16.40;67.40;;;;;;7322262;19;9204;-58
2023/12/30 03:18:02;;;;;;;;;;;16.50;67.60;;;;;;7322485;19;9319;-58
2023/12/30 03:20:31;;;;;;;;;;;16.40;67.50;;;;;;7322579;19;9187;-57
2023/12/30 03:23:00;;;;;;;;;;;16.40;67.60;;;;;;7322298;19;9476;-57
2023/12/30 03:25:29;;;;;;;;;;;16.30;67.60;;;;;;7322835;19;9248;-58
2023/12/30 03:27:59;;;;;;;;;;;16.30;67.70;;;;;;7328877;19;9259;-57
2023/12/30 03:30:30;;;;;;;;;;;16.20;67.80;;;;;;7328592;19;9477;-57
2023/12/30 03:32:59;;;;;;;;;;;16.20;67.80;;;;;;7328802;19;9734;-57
2023/12/30 03:35:28;;;;;;;;;;;16.20;67.80;;;;;;7329067;19;9469;-57
2023/12/30 03:37:57;;;;;;;;;;;16.10;67.80;;;;;;7328161;19;9199;-57
2023/12/30 03:40:26;;;;;;;;;;;16.10;67.90;;;;;;7328843;19;9474;-57
2023/12/30 03:42:55;;;;;;;;;;;16.10;68.00;;;;;;7328172;19;12056;-57
2023/12/30 03:45:24;;;;;;;;;;;16.00;68.00;;;;;;7328345;19;9618;-57
2023/12/30 03:47:55;;;;;;;;;;;16.00;68.00;;;;;;7328547;19;10011;-57
2023/12/30 03:50:24;;;;;;;;;;;16.00;68.00;;;;;;7328210;19;9237;-58
2023/12/30 03:53:13;;;;;;;;;;;16.00;68.10;;;;;;7326473;19;9234;-57
2023/12/30 03:55:42;;;;;;;;;;;15.90;68.10;;;;;;7329230;19;9330;-58
2023/12/30 03:58:11;;;;;;;;;;;15.90;68.10;;;;;;7328284;19;9218;-61
2023/12/30 04:00:40;;;;;;;;;;;15.90;68.20;;;;;;7327795;19;9354;-57
2023/12/30 04:03:12;;;;;;;;;;;15.90;68.10;;;;;;7327224;19;9415;-57
2023/12/30 04:05:40;;;;;;;;;;;15.90;68.10;;;;;;7327196;19;9504;-57
2023/12/30 04:08:09;;;;;;;;;;;15.90;68.10;;;;;;7327333;19;9311;-57
2023/12/30 04:10:38;;;;;;;;;;;16.00;68.00;;;;;;7327717;19;9568;-57
2023/12/30 04:13:09;;;;;;;;;;;16.00;68.10;;;;;;7327544;19;9546;-57
2023/12/30 04:15:38;;;;;;;;;;;16.10;68.10;;;;;;7328202;19;9481;-58
2023/12/30 04:18:08;;;;;;;;;;;16.10;68.00;;;;;;7327859;19;9477;-58
2023/12/30 04:20:39;;;;;;;;;;;16.20;68.00;;;;;;7327179;19;9521;-62
2023/12/30 04:23:08;;;;;;;;;;;16.30;67.90;;;;;;7327845;19;10482;-57
2023/12/30 04:25:38;;;;;;;;;;;16.30;67.70;;;;;;7326551;19;9675;-58
2023/12/30 04:28:07;;;;;;;;;;;16.40;67.70;;;;;;7327401;19;10333;-58
2023/12/30 04:30:36;;;;;;;;;;;16.40;67.60;;;;;;7327501;19;9467;-58
2023/12/30 04:33:06;;;;;;;;;;;16.50;67.50;;;;;;7327028;19;9364;-57
2023/12/30 04:35:35;;;;;;;;;;;16.50;67.50;;;;;;7326870;19;9477;-57
2023/12/30 04:38:06;;;;;;;;;;;16.60;67.40;;;;;;7326117;19;9538;-58
2023/12/30 04:40:35;;;;;;;;;;;16.60;67.30;;;;;;7326969;19;9443;-57
2023/12/30 04:43:04;;;;;;;;;;;16.60;67.10;;;;;;7327714;19;9522;-58
2023/12/30 04:45:53;;;;;;;;;;;16.70;67.20;;;;;;7325432;19;9505;-57
2023/12/30 04:48:22;;;;;;;;;;;16.70;67.10;;;;;;7326778;19;9465;-57
2023/12/30 04:50:51;;;;;;;;;;;16.70;67.00;;;;;;7326707;19;9469;-57
2023/12/30 04:53:22;;;;;;;;;;;16.70;67.00;;;;;;7326731;19;9639;-58
2023/12/30 04:55:52;;;;;;;;;;;16.60;66.80;;;;;;7326832;19;9238;-57
2023/12/30 04:58:21;;;;;;;;;;;16.60;66.80;;;;;;7325980;19;9379;-58
2023/12/30 05:00:50;;;;;;;;;;;16.60;66.70;;;;;;7326471;19;9460;-57
2023/12/30 05:03:20;;;;;;;;;;;16.60;66.70;;;;;;7326578;19;9391;-57
2023/12/30 05:05:51;;;;;;;;;;;16.60;66.70;;;;;;7326736;19;10027;-58
2023/12/30 05:08:24;;;;;;;;;;;16.50;66.70;;;;;;7326952;19;9623;-57
2023/12/30 05:10:53;;;;;;;;;;;16.50;66.80;;;;;;7326391;19;9234;-57
2023/12/30 05:13:22;;;;;;;;;;;16.50;67.40;;;;;;7326013;19;9215;-57
2023/12/30 05:15:51;;;;;;;;;;;16.40;66.90;;;;;;7325701;19;9469;-57
2023/12/30 05:18:21;;;;;;;;;;;16.40;66.90;;;;;;7325455;19;9481;-58
2023/12/30 05:20:50;;;;;;;;;;;16.40;67.00;;;;;;7326067;19;8996;-57
2023/12/30 05:23:21;;;;;;;;;;;16.30;67.00;;;;;;7325608;19;9598;-57
2023/12/30 05:25:50;;;;;;;;;;;16.30;67.00;;;;;;7325664;19;9450;-57
2023/12/30 05:28:20;;;;;;;;;;;16.20;67.10;;;;;;7326368;19;9419;-57
2023/12/30 05:30:49;;;;;;;;;;;16.20;67.10;;;;;;7326028;19;9510;-57
2023/12/30 05:33:18;;;;;;;;;;;16.20;67.20;;;;;;7324688;19;9210;-57
2023/12/30 05:35:47;;;;;;;;;;;16.10;67.20;;;;;;7325800;19;9468;-58
2023/12/30 05:38:16;;;;;;;;;;;16.10;67.20;;;;;;7325602;19;9650;-57
2023/12/30 05:40:47;;;;;;;;;;;16.10;67.40;;;;;;7326362;19;9485;-57
2023/12/30 05:43:16;;;;;;;;;;;16.00;67.30;;;;;;7324714;19;9320;-57
2023/12/30 05:46:05;;;;;;;;;;;16.00;67.40;;;;;;7322722;19;9297;-57
2023/12/30 05:48:34;;;;;;;;;;;15.90;67.40;;;;;;7322487;19;9135;-57
2023/12/30 05:51:03;;;;;;;;;;;15.90;67.40;;;;;;7325831;19;9375;-58
2023/12/30 05:53:32;;;;;;;;;;;15.90;67.50;;;;;;7325577;19;9542;-57
2023/12/30 05:56:04;;;;;;;;;;;15.90;67.50;;;;;;7324595;19;9569;-57
2023/12/30 05:58:34;;;;;;;;;;;15.90;67.50;;;;;;7324806;19;9229;-57
2023/12/30 06:01:03;;;;;;;;;;;15.90;67.50;;;;;;7324450;19;9399;-57
2023/12/30 06:03:35;;;;;;;;;;;15.90;67.50;;;;;;7325109;19;9453;-57
2023/12/30 06:06:04;;;;;;;;;;;15.90;67.40;;;;;;7324514;19;9518;-58
2023/12/30 06:08:35;;;;;;;;;;;16.00;67.50;;;;;;7325053;19;9281;-58
2023/12/30 06:11:06;;;;;;;;;;;16.10;67.50;;;;;;7324013;19;9364;-57
2023/12/30 06:13:36;;;;;;;;;;;16.10;67.50;;;;;;7324303;19;9449;-57
2023/12/30 06:16:05;;;;;;;;;;;16.20;67.50;;;;;;7324512;19;10395;-57
2023/12/30 06:18:33;;;;;;;;;;;16.20;67.30;;;;;;7324718;19;10820;-57
2023/12/30 06:21:04;;;;;;;;;;;16.30;67.30;;;;;;7324148;19;9428;-57
2023/12/30 06:23:33;;;;;;;;;;;16.40;67.30;;;;;;7323905;19;9682;-57
2023/12/30 06:26:05;;;;;;;;;;;16.40;67.00;;;;;;7323977;19;9584;-57
2023/12/30 06:28:35;;;;;;;;;;;16.50;67.10;;;;;;7323983;19;9305;-58
2023/12/30 06:31:04;;;;;;;;;;;16.50;67.00;;;;;;7324547;19;9390;-57
2023/12/30 06:33:33;;;;;;;;;;;16.60;67.00;;;;;;7323669;19;9142;-57
2023/12/30 06:36:02;;;;;;;;;;;16.60;66.90;;;;;;7323712;19;9603;-57
2023/12/30 06:38:31;;;;;;;;;;;16.70;66.80;;;;;;7324162;19;9162;-57
2023/12/30 06:40:59;;;;;;;;;;;16.70;66.80;;;;;;7324065;19;9486;-57
2023/12/30 06:43:31;;;;;;;;;;;16.70;66.70;;;;;;7323084;19;9428;-57
2023/12/30 06:46:00;;;;;;;;;;;16.70;66.60;;;;;;7323494;19;9320;-58
2023/12/30 06:48:29;;;;;;;;;;;16.70;66.70;;;;;;7323884;19;9433;-59
2023/12/30 06:51:00;;;;;;;;;;;16.70;66.60;;;;;;7322943;19;9282;-57
2023/12/30 06:53:32;;;;;;;;;;;16.70;66.60;;;;;;7323290;19;9398;-57
2023/12/30 06:56:02;;;;;;;;;;;16.70;66.50;;;;;;7323185;19;9222;-57
2023/12/30 06:58:34;;;;;;;;;;;16.70;66.30;;;;;;7323663;19;9194;-57
2023/12/30 07:01:04;;;;;;;;;;;16.70;66.40;;;;;;7322192;19;9637;-57
2023/12/30 07:03:33;;;;;;;;;;;16.60;66.30;;;;;;7323331;19;9601;-57
2023/12/30 07:06:02;;;;;;;;;;;16.70;66.30;;;;;;7322164;19;9509;-58
2023/12/30 07:08:31;;;;;;;;;;;16.60;66.30;;;;;;7323173;19;9469;-57
2023/12/30 07:11:00;;;;;;;;;;;16.60;66.40;;;;;;7322705;19;9769;-57
2023/12/30 07:13:29;;;;;;;;;;;16.50;66.40;;;;;;7323641;19;9663;-57
2023/12/30 07:16:01;;;;;;;;;;;16.50;66.50;;;;;;7322109;19;9582;-57
2023/12/30 07:18:30;;;;;;;;;;;16.50;66.50;;;;;;7323075;19;9465;-57
2023/12/30 07:20:58;;;;;;;;;;;16.40;66.50;;;;;;7322472;19;10804;-57
2023/12/30 07:23:27;;;;;;;;;;;16.40;66.50;;;;;;7323074;19;9166;-57
2023/12/30 07:25:56;;;;;;;;;;;16.30;66.50;;;;;;7322191;19;9576;-57
2023/12/30 07:28:25;;;;;;;;;;;16.30;66.70;;;;;;7321913;19;9289;-58
2023/12/30 07:30:55;;;;;;;;;;;16.30;66.70;;;;;;7320630;19;9465;-57
2023/12/30 07:33:27;;;;;;;;;;;16.20;66.90;;;;;;7321603;19;9682;-57
2023/12/30 07:35:57;;;;;;;;;;;16.20;66.80;;;;;;7322467;19;9345;-57
2023/12/30 07:38:27;;;;;;;;;;;16.20;66.90;;;;;;7320799;19;9497;-58
2023/12/30 07:40:56;;;;;;;;;;;16.10;66.90;;;;;;7321290;19;9449;-57
2023/12/30 07:43:25;;;;;;;;;;;16.10;67.00;;;;;;7320493;19;9273;-57
2023/12/30 07:46:14;;;;;;;;;;;16.00;67.00;;;;;;7319595;19;8992;-57
2023/12/30 07:48:46;;;;;;;;;;;16.00;67.10;;;;;;7321058;19;9802;-57
2023/12/30 07:51:15;;;;;;;;;;;16.00;67.20;;;;;;7320562;19;9526;-58
2023/12/30 07:53:44;;;;;;;;;;;16.00;67.40;;;;;;7321361;19;9434;-57
2023/12/30 07:56:13;;;;;;;;;;;15.90;67.20;;;;;;7321109;19;9513;-58
2023/12/30 07:58:42;;;;;;;;;;;15.90;67.30;;;;;;7321094;19;9610;-58
2023/12/30 08:01:11;;;;;;;;;;;15.90;67.40;;;;;;7320357;19;9282;-57
2023/12/30 08:03:40;;;;;;;;;;;15.90;67.20;;;;;;7320548;19;10430;-57
2023/12/30 08:06:12;;;;;;;;;;;16.00;67.30;;;;;;7320664;19;9341;-57
2023/12/30 08:08:41;;;;;;;;;;;15.90;67.20;;;;;;7320721;19;9217;-57
2023/12/30 08:11:10;;;;;;;;;;;16.00;67.20;;;;;;7321239;19;10652;-57
2023/12/30 08:13:39;;;;;;;;;;;16.00;67.10;;;;;;7327041;19;10501;-57
2023/12/30 08:16:08;;;;;;;;;;;16.10;67.20;;;;;;7327021;19;10808;-57
2023/12/30 08:18:37;;;;;;;;;;;16.10;67.10;;;;;;7327109;19;9610;-57
2023/12/30 08:21:06;;;;;;;;;;;16.20;67.10;;;;;;7327513;19;9212;-57
2023/12/30 08:23:38;;;;;;;;;;;16.30;67.10;;;;;;7326865;19;9400;-56
2023/12/30 08:26:27;;;;;;;;;;;16.30;66.90;;;;;;7324885;19;9274;-57
2023/12/30 08:28:57;;;;;;;;;;;16.40;66.90;;;;;;7326138;19;9307;-57
2023/12/30 08:31:27;;;;;;;;;;;16.50;66.80;;;;;;7326659;19;9502;-57
2023/12/30 08:33:56;;;;;;;;;;;16.50;66.70;;;;;;7326500;19;9395;-57
2023/12/30 08:36:26;;;;;;;;;;;16.60;66.70;;;;;;7326290;19;10415;-57
2023/12/30 08:38:57;;;;;;;;;;;16.60;66.60;;;;;;7325856;19;9486;-56
2023/12/30 08:41:27;;;;;;;;;;;16.60;66.70;;;;;;7326797;19;9225;-57
2023/12/30 08:43:56;;;;;;;;;;;16.60;66.50;;;;;;7327301;19;9465;-56
2023/12/30 08:46:25;;;;;;;;;;;16.70;66.50;;;;;;7325925;19;9499;-57
2023/12/30 08:48:54;;;;;;;;;;;16.70;66.40;;;;;;7327307;19;9440;-57
2023/12/30 08:51:23;;;;;;;;;;;16.70;66.40;;;;;;7325751;19;9367;-57
2023/12/30 08:53:53;;;;;;;;;;;16.70;66.30;;;;;;7326755;19;10845;-57
2023/12/30 08:56:25;;;;;;;;;;;16.70;66.20;;;;;;7325299;19;9445;-57
2023/12/30 08:58:53;;;;;;;;;;;16.70;66.20;;;;;;7325841;19;9253;-57
2023/12/30 09:01:22;;;;;;;;;;;16.60;66.20;;;;;;7325745;19;9595;-57
2023/12/30 09:03:51;;;;;;;;;;;16.60;66.20;;;;;;7326285;19;9224;-58
2023/12/30 09:06:20;;;;;;;;;;;16.60;66.20;;;;;;7326167;19;9212;-56
2023/12/30 09:08:49;;;;;;;;;;;16.60;66.20;;;;;;7326096;19;9268;-56
2023/12/30 09:11:25;;;;;;;;;;;16.50;66.20;;;;;;7325303;19;9845;-57
2023/12/30 09:14:14;;;;;;;;;;;16.50;66.30;;;;;;7323258;19;9268;-57
2023/12/30 09:16:43;;;;;;;;;;;16.50;66.30;;;;;;7326162;19;9166;-58
2023/12/30 09:19:12;;;;;;;;;;;16.40;66.40;;;;;;7326276;19;9450;-57
2023/12/30 09:21:41;;;;;;;;;;;16.40;66.50;;;;;;7325586;19;9191;-57
2023/12/30 09:24:10;;;;;;;;;;;16.40;66.50;;;;;;7322188;19;9206;-57
2023/12/30 09:26:41;;;;;;;;;;;16.30;66.50;;;;;;7325038;19;9475;-56
2023/12/30 09:29:10;;;;;;;;;;;16.30;66.50;;;;;;7325428;19;9450;-56
2023/12/30 09:31:40;;;;;;;;;;;16.30;66.60;;;;;;7325243;19;9513;-57
2023/12/30 09:34:09;;;;;;;;;;;16.20;66.70;;;;;;7325661;19;9545;-57
2023/12/30 09:36:38;;;;;;;;;;;16.20;66.70;;;;;;7325184;19;9258;-57
2023/12/30 09:39:10;;;;;;;;;;;16.20;66.80;;;;;;7325734;19;9453;-57
2023/12/30 09:41:43;;;;;;;;;;;16.20;66.80;;;;;;7324778;19;9205;-56
2023/12/30 09:44:12;;;;;;;;;;;16.10;66.80;;;;;;7324663;19;9225;-57
2023/12/30 09:47:06;;;;;;;;;;;16.10;66.90;;;;;;7323908;19;9299;-57
2023/12/30 09:49:38;;;;;;;;;;;16.10;66.90;;;;;;7324931;19;9250;-57
2023/12/30 09:52:07;;;;;;;;;;;16.10;67.00;;;;;;7325659;19;9528;-57
2023/12/30 09:54:37;;;;;;;;;;;16.00;67.00;;;;;;7323783;19;9770;-57
2023/12/30 09:57:09;;;;;;;;;;;16.00;67.10;;;;;;7324931;19;9483;-56
2023/12/30 09:59:40;;;;;;;;;;;16.00;67.10;;;;;;7324845;19;9218;-57
2023/12/30 10:02:12;;;;;;;;;;;16.00;67.10;;;;;;7324136;19;10648;-57
2023/12/30 10:04:40;;;;;;;;;;;16.00;67.10;;;;;;7323986;19;9223;-56
2023/12/30 10:07:33;;;;;;;;;;;16.00;67.10;;;;;;7322422;19;9177;-57
2023/12/30 10:10:02;;;;;;;;;;;16.00;67.10;;;;;;7323956;19;9146;-57
2023/12/30 10:12:34;;;;;;;;;;;16.10;67.10;;;;;;7323493;19;9158;-57
2023/12/30 10:15:03;;;;;;;;;;;16.10;67.10;;;;;;7324019;19;10629;-56
2023/12/30 10:17:33;;;;;;;;;;;16.20;67.10;;;;;;7323649;19;9492;-57
2023/12/30 10:20:02;;;;;;;;;;;16.20;67.10;;;;;;7323799;19;9595;-57
2023/12/30 10:22:31;;;;;;;;;;;16.30;67.00;;;;;;7323328;19;9314;-57
2023/12/30 10:25:01;;;;;;;;;;;16.40;67.00;;;;;;7323010;19;9196;-57
2023/12/30 10:27:30;;;;;;;;;;;16.40;66.90;;;;;;7324055;19;9258;-56
2023/12/30 10:30:02;;;;;;;;;;;16.40;66.80;;;;;;7322910;19;9279;-56
2023/12/30 10:32:32;;;;;;;;;;;16.50;66.80;;;;;;7323211;19;9592;-57
2023/12/30 10:35:01;;;;;;;;;;;16.60;66.80;;;;;;7321895;19;9474;-57
2023/12/30 10:37:31;;;;;;;;;;;16.60;66.70;;;;;;7323633;19;9613;-56
2023/12/30 10:40:05;;;;;;;;;;;16.70;66.70;;;;;;7322450;19;9683;-57
2023/12/30 10:42:34;;;;;;;;;;;16.70;66.60;;;;;;7323447;19;9223;-57
2023/12/30 10:45:07;;;;;;;;;;;16.70;66.50;;;;;;7322492;19;10306;-57
2023/12/30 10:47:42;;;;;;;;;;;16.70;66.40;;;;;;7322941;19;9474;-62
2023/12/30 10:50:12;;;;;;;;;;;16.70;66.40;;;;;;7322661;19;9719;-56
2023/12/30 10:53:04;;;;;;;;;;;16.70;66.30;;;;;;7320712;19;9485;-57
2023/12/30 10:55:34;;;;;;;;;;;16.80;66.30;;;;;;7322816;19;9172;-57
2023/12/30 10:58:06;;;;;;;;;;;16.70;66.20;;;;;;7321944;19;9501;-57
2023/12/30 11:00:39;;;;;;;;;;;16.70;66.20;;;;;;7322011;19;9313;-57
2023/12/30 11:03:08;;;;;;;;;;;16.70;66.30;;;;;;7322214;19;9339;-57
2023/12/30 11:05:46;;;;;;;;;;;16.70;66.30;;;;;;7322705;19;9649;-56
2023/12/30 11:08:17;;;;;;;;;;;16.70;66.40;;;;;;7322306;19;9849;-57
2023/12/30 11:10:46;;;;;;;;;;;16.70;66.40;;;;;;7322179;19;9569;-57
2023/12/30 11:13:15;;;;;;;;;;;16.70;66.40;;;;;;7322400;19;9603;-57
2023/12/30 11:15:47;;;;;;;;;;;16.60;66.50;;;;;;7322495;19;9136;-56
2023/12/30 11:18:16;;;;;;;;;;;16.60;66.50;;;;;;7321773;19;9247;-56
2023/12/30 11:20:48;;;;;;;;;;;16.60;66.50;;;;;;7321125;19;11670;-56
2023/12/30 11:23:17;;;;;;;;;;;16.60;66.60;;;;;;7322012;19;9370;-56
2023/12/30 11:25:49;;;;;;;;;;;16.60;66.60;;;;;;7321518;19;11249;-57
2023/12/30 11:28:20;;;;;;;;;;;16.50;66.70;;;;;;7322164;19;9283;-56
2023/12/30 11:31:01;;;;;;;;;;;16.50;66.70;;;;;;7322025;19;9515;-56
2023/12/30 11:33:31;;;;;;;;;;;16.40;66.60;;;;;;7321104;19;9459;-56
2023/12/30 11:36:05;;;;;;;;;;;16.40;66.70;;;;;;7321278;19;9273;-56
2023/12/30 11:38:34;;;;;;;;;;;16.40;66.70;;;;;;7320082;19;9549;-56
2023/12/30 11:41:03;;;;;;;;;;;16.40;66.80;;;;;;7321075;19;9249;-56
2023/12/30 11:43:33;;;;;;;;;;;16.40;66.80;;;;;;7321463;19;9210;-56
2023/12/30 11:46:05;;;;;;;;;;;16.40;66.90;;;;;;7321042;19;10295;-57
2023/12/30 11:48:33;;;;;;;;;;;16.30;66.90;;;;;;7327616;19;9357;-56
2023/12/30 11:51:02;;;;;;;;;;;16.30;66.90;;;;;;7326887;19;9532;-57
2023/12/30 11:53:36;;;;;;;;;;;16.30;67.00;;;;;;7327387;19;9471;-59
2023/12/30 11:56:05;;;;;;;;;;;16.30;67.00;;;;;;7327804;19;9472;-57
2023/12/30 11:58:34;;;;;;;;;;;16.30;67.10;;;;;;7328218;19;9753;-57
2023/12/30 12:01:06;;;;;;;;;;;16.30;67.10;;;;;;7327384;19;9266;-57
2023/12/30 12:03:36;;;;;;;;;;;16.20;67.10;;;;;;7327619;19;9444;-57
2023/12/30 12:06:05;;;;;;;;;;;16.30;67.20;;;;;;7326279;19;9490;-57
2023/12/30 12:08:34;;;;;;;;;;;16.30;67.10;;;;;;7327529;19;9633;-57
2023/12/30 12:11:03;;;;;;;;;;;16.20;67.10;;;;;;7327325;19;9472;-56
2023/12/30 12:13:32;;;;;;;;;;;16.30;67.20;;;;;;7326922;19;9516;-57
2023/12/30 12:16:04;;;;;;;;;;;16.20;67.20;;;;;;7327016;19;9828;-57
2023/12/30 12:18:35;;;;;;;;;;;16.20;67.20;;;;;;7326971;19;9260;-57
2023/12/30 12:21:05;;;;;;;;;;;16.30;67.30;;;;;;7326046;19;9715;-57
2023/12/30 12:23:34;;;;;;;;;;;16.20;67.20;;;;;;7327191;19;9813;-57
2023/12/30 12:26:04;;;;;;;;;;;16.20;67.30;;;;;;7326049;19;9563;-57
2023/12/30 12:28:36;;;;;;;;;;;16.20;67.20;;;;;;7326323;19;9834;-57
2023/12/30 12:31:08;;;;;;;;;;;16.20;67.30;;;;;;7327055;19;9280;-57
2023/12/30 12:33:40;;;;;;;;;;;16.20;67.30;;;;;;7325901;19;9162;-57
2023/12/30 12:36:12;;;;;;;;;;;16.20;67.40;;;;;;7326728;19;9179;-57
2023/12/30 12:38:41;;;;;;;;;;;16.20;67.40;;;;;;7325776;19;9477;-57
2023/12/30 12:41:10;;;;;;;;;;;16.20;67.50;;;;;;7325174;19;9469;-57
2023/12/30 12:43:39;;;;;;;;;;;16.10;67.50;;;;;;7326090;19;9449;-58
2023/12/30 12:46:08;;;;;;;;;;;16.10;67.50;;;;;;7325782;19;9215;-57
2023/12/30 12:48:40;;;;;;;;;;;16.10;67.50;;;;;;7325314;19;9477;-57
2023/12/30 12:51:10;;;;;;;;;;;16.10;67.60;;;;;;7325547;19;9333;-57
2023/12/30 12:53:58;;;;;;;;;;;16.10;67.50;;;;;;7324691;19;9501;-57
2023/12/30 12:56:27;;;;;;;;;;;16.00;67.50;;;;;;7325873;19;9627;-57
2023/12/30 12:58:56;;;;;;;;;;;16.00;67.50;;;;;;7325397;19;9252;-62
2023/12/30 13:01:25;;;;;;;;;;;16.00;67.60;;;;;;7325263;19;9466;-57
2023/12/30 13:03:58;;;;;;;;;;;16.00;67.60;;;;;;7325347;19;9500;-57
2023/12/30 13:06:27;;;;;;;;;;;16.00;67.70;;;;;;7326064;19;9648;-57
2023/12/30 13:08:56;;;;;;;;;;;16.00;67.70;;;;;;7325943;19;9668;-57
2023/12/30 13:11:27;;;;;;;;;;;16.00;67.70;;;;;;7325582;19;9179;-57
2023/12/30 13:13:55;;;;;;;;;;;16.00;67.80;;;;;;7325025;19;9295;-57
2023/12/30 13:16:25;;;;;;;;;;;16.00;67.70;;;;;;7325975;19;9553;-57
2023/12/30 13:18:56;;;;;;;;;;;16.00;67.70;;;;;;7325311;19;9262;-57
2023/12/30 13:21:25;;;;;;;;;;;16.00;67.70;;;;;;7325554;19;9449;-57
2023/12/30 13:24:14;;;;;;;;;;;16.10;67.70;;;;;;7323877;19;9693;-57
2023/12/30 13:26:44;;;;;;;;;;;16.10;67.60;;;;;;7325015;19;9209;-57
2023/12/30 13:29:14;;;;;;;;;;;16.20;67.60;;;;;;7325123;19;9152;-57
2023/12/30 13:31:43;;;;;;;;;;;16.20;67.50;;;;;;7324498;19;9467;-57
2023/12/30 13:34:16;;;;;;;;;;;16.30;67.40;;;;;;7324701;19;9571;-57
2023/12/30 13:36:45;;;;;;;;;;;16.40;67.40;;;;;;7324676;19;9475;-57
2023/12/30 13:39:15;;;;;;;;;;;16.40;67.30;;;;;;7325145;19;9158;-57
2023/12/30 13:41:44;;;;;;;;;;;16.50;67.40;;;;;;7324532;19;9451;-57
2023/12/30 13:44:15;;;;;;;;;;;16.50;67.10;;;;;;7324657;19;9529;-57
2023/12/30 13:46:57;;;;;;;;;;;16.60;67.10;;;;;;7323927;19;9449;-57
2023/12/30 13:49:58;;;;;;;;;;;16.60;67.00;;;;;;7323724;19;10391;-57
2023/12/30 13:52:28;;;;;;;;;;;16.70;67.00;;;;;;7324310;19;9498;-57
2023/12/30 13:54:57;;;;;;;;;;;16.70;66.90;;;;;;7324376;19;11224;-57
2023/12/30 13:57:29;;;;;;;;;;;16.70;66.80;;;;;;7324468;19;9513;-57
2023/12/30 13:59:58;;;;;;;;;;;16.70;66.70;;;;;;7323682;19;9211;-57
2023/12/30 14:02:37;;;;;;;;;;;16.80;66.80;;;;;;7323864;19;10689;-57
2023/12/30 14:05:17;;;;;;;;;;;16.80;66.80;;;;;;7324383;19;9251;-57
2023/12/30 14:07:50;;;;;;;;;;;16.80;66.80;;;;;;7324195;19;9242;-57
2023/12/30 14:10:20;;;;;;;;;;;16.80;66.70;;;;;;7321919;19;9219;-57
2023/12/30 14:12:59;;;;;;;;;;;16.80;66.70;;;;;;7323545;19;9612;-58
2023/12/30 14:15:31;;;;;;;;;;;16.70;66.60;;;;;;7323636;19;9209;-58
2023/12/30 14:18:00;;;;;;;;;;;16.70;66.70;;;;;;7324084;19;9497;-57
2023/12/30 14:20:31;;;;;;;;;;;16.70;66.70;;;;;;7323051;19;9412;-58
2023/12/30 14:23:00;;;;;;;;;;;16.70;66.80;;;;;;7324015;19;9465;-58
2023/12/30 14:25:29;;;;;;;;;;;16.70;66.70;;;;;;7322446;19;9395;-57
2023/12/30 14:27:58;;;;;;;;;;;16.60;66.80;;;;;;7323500;19;9170;-58
2023/12/30 14:30:27;;;;;;;;;;;16.60;66.80;;;;;;7322679;19;10715;-57
2023/12/30 14:32:57;;;;;;;;;;;16.50;66.90;;;;;;7322633;19;9489;-57
2023/12/30 14:35:49;;;;;;;;;;;16.50;67.00;;;;;;7321587;19;9285;-57
2023/12/30 14:38:19;;;;;;;;;;;16.50;67.00;;;;;;7322959;19;9469;-58
2023/12/30 14:41:08;;;;;;;;;;;16.40;67.10;;;;;;7321823;19;9179;-57
2023/12/30 14:43:37;;;;;;;;;;;16.40;67.10;;;;;;7322325;19;9323;-57
2023/12/30 14:46:10;;;;;;;;;;;16.40;67.20;;;;;;7321721;19;10343;-58
2023/12/30 14:48:40;;;;;;;;;;;16.30;67.20;;;;;;7322206;19;9543;-58